Time;durP1;ratioP1;P1;durP2;ratioP2;P2;SDS_P1;SDS_P2;PMS_P1;PMS_P2;Temp;Humidity;BMP_temperature;BMP_pressure;BME280_temperature;BME280_humidity;BME280_pressure;Samples;Min_cycle;Max_cycle;Signal;HPM_P1;HPM_P2
2023/12/05 00:00:29;;;;;;;3.05;2.03;;;;;;;3.30;100.00;97162.06;4092309;28;20309;-46
2023/12/05 00:02:31;;;;;;;2.67;2.47;;;;;;;3.30;100.00;97153.94;4091398;28;20231;-45
2023/12/05 00:04:33;;;;;;;2.60;2.50;;;;;;;3.28;100.00;97158.75;4094027;28;20335;-46
2023/12/05 00:06:36;;;;;;;2.17;1.70;;;;;;;3.38;100.00;97158.16;4090584;28;20237;-45
2023/12/05 00:08:38;;;;;;;1.95;1.85;;;;;;;3.27;100.00;97164.41;4092733;28;20350;-45
2023/12/05 00:10:40;;;;;;;2.42;2.33;;;;;;;3.39;100.00;97157.09;4093001;28;20647;-45
2023/12/05 00:12:42;;;;;;;2.13;1.83;;;;;;;3.37;100.00;97160.03;4103041;28;20218;-45
2023/12/05 00:14:44;;;;;;;2.72;2.53;;;;;;;3.37;100.00;97162.75;4089829;28;20207;-45
2023/12/05 00:16:45;;;;;;;3.53;2.00;;;;;;;3.38;100.00;97167.09;4092589;28;20227;-45
2023/12/05 00:18:49;;;;;;;2.55;2.35;;;;;;;3.46;100.00;97164.00;4105934;28;20203;-45
2023/12/05 00:20:52;;;;;;;2.95;2.75;;;;;;;3.48;100.00;97170.00;4085244;28;20226;-45
2023/12/05 00:22:54;;;;;;;3.92;3.65;;;;;;;3.47;100.00;97171.06;4095892;28;20219;-45
2023/12/05 00:24:56;;;;;;;1.90;1.80;;;;;;;3.43;100.00;97159.09;4092377;28;20235;-45
2023/12/05 00:26:58;;;;;;;1.63;1.55;;;;;;;3.38;100.00;97167.09;4097610;28;20246;-46
2023/12/05 00:29:00;;;;;;;2.33;2.22;;;;;;;3.28;100.00;97169.56;4090494;28;20240;-45
2023/12/05 00:31:02;;;;;;;2.30;2.17;;;;;;;3.29;100.00;97163.13;4093997;28;20215;-46
2023/12/05 00:33:03;;;;;;;2.67;2.58;;;;;;;3.26;100.00;97168.19;4094851;28;20211;-45
2023/12/05 00:35:06;;;;;;;2.50;2.30;;;;;;;3.17;100.00;97175.81;4092942;28;20207;-46
2023/12/05 00:37:07;;;;;;;2.42;2.25;;;;;;;3.08;100.00;97171.81;4108105;28;20199;-45
2023/12/05 00:39:09;;;;;;;2.38;2.10;;;;;;;3.15;100.00;97166.31;4110606;28;20202;-45
2023/12/05 00:41:11;;;;;;;3.17;2.97;;;;;;;3.13;100.00;97169.22;4090174;28;20490;-45
2023/12/05 00:43:13;;;;;;;2.63;2.47;;;;;;;3.14;100.00;97170.06;4073777;29;20228;-45
2023/12/05 00:45:14;;;;;;;2.75;2.55;;;;;;;3.17;100.00;97175.81;4104181;28;20214;-45
2023/12/05 00:47:16;;;;;;;2.63;2.42;;;;;;;3.08;100.00;97177.22;4103927;28;20599;-45
2023/12/05 00:49:18;;;;;;;2.60;2.40;;;;;;;3.11;100.00;97168.66;4088202;28;20228;-45
2023/12/05 00:51:20;;;;;;;2.92;2.78;;;;;;;3.11;100.00;97176.75;4092141;28;20218;-44
2023/12/05 00:53:22;;;;;;;2.05;1.95;;;;;;;3.10;100.00;97177.81;4094122;28;20215;-45
2023/12/05 00:55:24;;;;;;;1.98;1.88;;;;;;;3.21;100.00;97171.56;4092862;28;20653;-45
2023/12/05 00:57:26;;;;;;;3.10;2.90;;;;;;;3.27;100.00;97176.03;4109629;28;20206;-45
2023/12/05 00:59:27;;;;;;;2.72;2.53;;;;;;;3.43;100.00;97180.72;4097037;28;20235;-44
2023/12/05 01:01:29;;;;;;;3.20;2.95;;;;;;;3.35;100.00;97185.66;4091664;28;20215;-45
2023/12/05 01:03:31;;;;;;;2.88;2.67;;;;;;;3.32;100.00;97184.25;4093072;28;20237;-45
2023/12/05 01:05:34;;;;;;;2.28;2.17;;;;;;;3.28;100.00;97176.88;4088623;28;20326;-44
2023/12/05 01:07:36;;;;;;;2.80;2.70;;;;;;;3.24;100.00;97187.31;4106868;28;20281;-45
2023/12/05 01:09:41;;;;;;;2.25;2.15;;;;;;;3.41;100.00;97185.53;4092320;28;20298;-44
2023/12/05 01:11:43;;;;;;;3.00;2.80;;;;;;;3.53;100.00;97180.91;4077272;29;20577;-44
2023/12/05 01:13:45;;;;;;;2.45;2.25;;;;;;;3.40;100.00;97189.28;4073115;29;20235;-44
2023/12/05 01:15:47;;;;;;;3.55;3.25;;;;;;;3.48;100.00;97188.13;4106268;28;20230;-45
2023/12/05 01:17:49;;;;;;;2.90;2.70;;;;;;;3.44;100.00;97190.47;4091978;28;20215;-45
2023/12/05 01:19:51;;;;;;;2.10;1.90;;;;;;;3.45;100.00;97189.41;4087762;28;20211;-45
2023/12/05 01:21:52;;;;;;;2.75;2.65;;;;;;;3.49;100.00;97190.59;4088484;28;20223;-45
2023/12/05 01:23:54;;;;;;;2.58;2.38;;;;;;;3.50;100.00;97191.41;4102676;28;20211;-45
2023/12/05 01:25:56;;;;;;;2.22;2.10;;;;;;;3.51;100.00;97177.66;4087571;28;20677;-45
2023/12/05 01:27:58;;;;;;;2.78;2.50;;;;;;;3.56;100.00;97193.16;4108273;28;20210;-45
2023/12/05 01:30:00;;;;;;;2.97;2.35;;;;;;;3.65;100.00;97189.84;4088537;28;20235;-45
2023/12/05 01:32:02;;;;;;;6.13;2.53;;;;;;;3.66;100.00;97186.06;4106742;28;20284;-44
2023/12/05 01:34:04;;;;;;;3.28;3.08;;;;;;;3.63;100.00;97191.97;4096444;28;20219;-45
2023/12/05 01:36:11;;;;;;;2.75;2.55;;;;;;;3.62;100.00;97190.31;4095143;28;20258;-45
2023/12/05 01:38:13;;;;;;;3.60;3.33;;;;;;;3.66;100.00;97193.38;4072567;29;20220;-45
2023/12/05 01:40:15;;;;;;;2.67;2.53;;;;;;;3.58;100.00;97189.16;4077583;29;20208;-45
2023/12/05 01:42:17;;;;;;;2.15;1.90;;;;;;;3.52;100.00;97184.69;4107917;28;20210;-45
2023/12/05 01:44:18;;;;;;;3.05;2.80;;;;;;;3.56;100.00;97183.16;4088442;28;20215;-45
2023/12/05 01:46:20;;;;;;;2.47;2.28;;;;;;;3.53;100.00;97180.91;4095312;28;20251;-45
2023/12/05 01:48:23;;;;;;;2.47;2.35;;;;;;;3.45;100.00;97180.47;4080257;29;20312;-46
2023/12/05 01:50:27;;;;;;;1.70;1.60;;;;;;;3.45;100.00;97180.47;4092396;28;20212;-45
2023/12/05 01:52:30;;;;;;;3.22;3.05;;;;;;;3.48;100.00;97186.22;4079250;29;20216;-45
2023/12/05 01:54:32;;;;;;;1.27;1.27;;;;;;;3.53;100.00;97186.31;4090175;28;20219;-45
2023/12/05 01:56:34;;;;;;;3.33;3.13;;;;;;;3.47;100.00;97181.88;4110282;28;20655;-45
2023/12/05 01:58:37;;;;;;;3.13;2.83;;;;;;;3.41;100.00;97187.41;4105568;28;20214;-45
2023/12/05 02:00:39;;;;;;;4.28;2.35;;;;;;;3.28;100.00;97183.06;4097997;28;20219;-45
2023/12/05 02:02:41;;;;;;;2.75;2.55;;;;;;;3.35;100.00;97183.75;4070469;29;20250;-45
2023/12/05 02:04:43;;;;;;;3.05;2.85;;;;;;;3.49;100.00;97174.38;4089825;28;20222;-44
2023/12/05 02:06:46;;;;;;;2.63;2.53;;;;;;;3.38;100.00;97177.91;4103060;28;20235;-45
2023/12/05 02:08:52;;;;;;;3.20;3.00;;;;;;;3.44;100.00;97179.66;4108279;28;20277;-45
2023/12/05 02:10:54;;;;;;;2.67;2.53;;;;;;;3.59;100.00;97179.97;4103755;28;20218;-45
2023/12/05 02:12:59;;;;;;;2.83;2.63;;;;;;;3.51;100.00;97183.06;4091273;28;20299;-45
2023/12/05 02:15:00;;;;;;;2.70;2.55;;;;;;;3.44;100.00;97192.34;4077208;29;20275;-45
2023/12/05 02:17:15;;;;;;;2.67;2.47;;;;;;;3.43;100.00;97191.53;4092295;28;20219;-46
2023/12/05 02:19:31;;;;;;;2.90;2.70;;;;;;;3.33;100.00;97185.91;4109148;28;20815;-45
2023/12/05 02:21:35;;;;;;;4.50;2.35;;;;;;;3.51;100.00;97191.16;4091136;28;20211;-45
2023/12/05 02:23:45;;;;;;;2.80;2.60;;;;;;;3.59;100.00;97201.59;4088415;28;20258;-45
2023/12/05 02:26:00;;;;;;;3.08;2.88;;;;;;;3.67;100.00;97187.69;4088246;28;20325;-45
2023/12/05 02:28:02;;;;;;;2.75;2.55;;;;;;;3.65;100.00;97200.66;4091660;28;20495;-45
2023/12/05 02:30:04;;;;;;;2.85;2.65;;;;;;;3.54;100.00;97195.28;4091198;28;20267;-45
2023/12/05 02:32:06;;;;;;;2.33;2.22;;;;;;;3.62;100.00;97190.31;4094488;28;20237;-45
2023/12/05 02:34:08;;;;;;;2.78;2.22;;;;;;;3.65;100.00;97195.25;4077870;29;20702;-44
2023/12/05 02:36:25;;;;;;;2.95;2.38;;;;;;;3.57;100.00;97198.31;4088092;28;20656;-45
2023/12/05 02:38:52;;;;;;;2.88;2.67;;;;;;;3.52;100.00;97203.63;4090777;28;20219;-45
2023/12/05 02:41:07;;;;;;;3.10;2.22;;;;;;;3.62;100.00;97201.16;4104620;28;20209;-44
2023/12/05 02:43:11;;;;;;;1.95;1.85;;;;;;;3.74;100.00;97201.09;4090820;28;20219;-45
2023/12/05 02:45:18;;;;;;;2.33;2.22;;;;;;;3.93;100.00;97197.19;4092962;28;20536;-45
2023/12/05 02:47:23;;;;;;;2.55;1.85;;;;;;;3.88;100.00;97205.97;4093587;28;20255;-45
2023/12/05 02:49:25;;;;;;;1.23;1.20;;;;;;;3.94;100.00;97198.81;4098657;28;20227;-45
2023/12/05 02:51:27;;;;;;;2.65;2.45;;;;;;;3.93;100.00;97197.97;4098321;28;20215;-45
2023/12/05 02:53:29;;;;;;;2.15;2.00;;;;;;;4.09;100.00;97194.53;4099976;28;20214;-44
2023/12/05 02:55:31;;;;;;;2.35;1.90;;;;;;;4.13;100.00;97201.06;4094608;28;20234;-45
2023/12/05 02:57:32;;;;;;;2.58;2.40;;;;;;;4.12;100.00;97198.59;4112613;28;20543;-45
2023/12/05 02:59:34;;;;;;;2.20;2.10;;;;;;;4.16;100.00;97197.06;4095235;28;20309;-46
2023/12/05 03:01:39;;;;;;;6.07;2.95;;;;;;;4.17;100.00;97194.13;4108225;28;20571;-45
2023/12/05 03:03:41;;;;;;;1.70;1.60;;;;;;;4.18;100.00;97201.19;4086981;28;20748;-45
2023/12/05 03:05:43;;;;;;;1.92;1.83;;;;;;;4.19;100.00;97192.00;4092438;28;20962;-45
2023/12/05 03:07:45;;;;;;;1.60;1.25;;;;;;;4.25;100.00;97195.59;4095722;28;20254;-44
2023/12/05 03:09:47;;;;;;;1.10;1.00;;;;;;;4.37;100.00;97190.97;4090888;28;20230;-45
2023/12/05 03:11:49;;;;;;;1.55;1.48;;;;;;;4.37;100.00;97189.09;4094671;28;20226;-45
2023/12/05 03:13:50;;;;;;;3.00;1.70;;;;;;;4.41;100.00;97176.69;4104467;28;20277;-45
2023/12/05 03:15:52;;;;;;;2.08;1.98;;;;;;;4.45;100.00;97180.56;4094637;28;20665;-45
2023/12/05 03:17:54;;;;;;;1.75;1.65;;;;;;;4.42;100.00;97181.06;4093214;28;20306;-44
2023/12/05 03:19:56;;;;;;;1.73;1.63;;;;;;;4.53;100.00;97188.28;4111441;28;20309;-45
2023/12/05 03:21:58;;;;;;;1.33;1.17;;;;;;;4.67;100.00;97184.19;4079856;29;20211;-44
2023/12/05 03:23:59;;;;;;;1.40;1.40;;;;;;;4.64;100.00;97176.56;4111785;28;20210;-45
2023/12/05 03:26:02;;;;;;;1.88;1.77;;;;;;;4.63;100.00;97172.22;4080117;28;20705;-45
2023/12/05 03:28:03;;;;;;;2.55;1.30;;;;;;;4.68;100.00;97179.59;4093652;28;20266;-44
2023/12/05 03:30:06;;;;;;;1.20;1.10;;;;;;;4.73;100.00;97188.63;4095666;28;20689;-45
2023/12/05 03:32:08;;;;;;;3.20;1.50;;;;;;;4.73;100.00;97188.63;4108790;28;20274;-45
2023/12/05 03:34:10;;;;;;;1.17;1.17;;;;;;;4.77;100.00;97178.13;4093539;28;20211;-45
2023/12/05 03:36:12;;;;;;;1.83;1.73;;;;;;;4.80;100.00;97189.28;4091282;28;20231;-45
2023/12/05 03:38:14;;;;;;;0.82;0.82;;;;;;;4.95;100.00;97186.84;4096009;28;20725;-44
2023/12/05 03:40:16;;;;;;;0.98;0.98;;;;;;;5.01;100.00;97196.66;4098876;28;20720;-44
2023/12/05 03:42:17;;;;;;;0.95;0.95;;;;;;;4.92;100.00;97186.47;4095083;28;20637;-45
2023/12/05 03:44:19;;;;;;;1.42;1.33;;;;;;;5.02;100.00;97184.78;4092572;28;20230;-44
2023/12/05 03:46:21;;;;;;;0.82;0.82;;;;;;;5.07;100.00;97179.41;4091826;28;20242;-45
2023/12/05 03:48:22;;;;;;;0.70;0.70;;;;;;;5.07;100.00;97190.25;4093645;28;20216;-45
2023/12/05 03:50:24;;;;;;;1.00;1.00;;;;;;;4.98;100.00;97186.31;4091411;28;20259;-45
2023/12/05 03:52:26;;;;;;;1.20;1.10;;;;;;;5.01;100.00;97199.38;4093518;28;20294;-44
2023/12/05 03:54:28;;;;;;;0.95;0.95;;;;;;;5.09;100.00;97204.41;4112709;28;20759;-44
2023/12/05 03:56:30;;;;;;;1.10;1.10;;;;;;;5.10;100.00;97187.06;4092893;28;20230;-45
2023/12/05 03:58:32;;;;;;;1.15;1.02;;;;;;;5.12;100.00;97182.22;4078622;29;20593;-44
2023/12/05 04:00:33;;;;;;;1.40;1.30;;;;;;;5.08;100.00;97178.34;4072830;29;20264;-45
2023/12/05 04:02:35;;;;;;;1.48;1.40;;;;;;;5.07;100.00;97187.53;4091554;28;20673;-45
2023/12/05 04:04:37;;;;;;;1.27;1.10;;;;;;;5.11;100.00;97188.69;4091957;28;20231;-44
2023/12/05 04:06:39;;;;;;;0.80;0.80;;;;;;;5.10;100.00;97200.63;4094652;28;20222;-45
2023/12/05 04:08:41;;;;;;;1.00;1.00;;;;;;;5.13;100.00;97205.53;4088014;28;20279;-44
2023/12/05 04:10:43;;;;;;;1.40;1.40;;;;;;;5.10;100.00;97196.00;4077485;29;20235;-45
2023/12/05 04:12:44;;;;;;;0.93;0.93;;;;;;;5.24;100.00;97196.50;4095496;28;20216;-45
2023/12/05 04:14:46;;;;;;;0.90;0.90;;;;;;;5.25;100.00;97204.38;4092814;28;20360;-48
2023/12/05 04:16:48;;;;;;;1.33;1.33;;;;;;;5.18;100.00;97202.91;4093767;28;20729;-45
2023/12/05 04:18:50;;;;;;;1.00;1.00;;;;;;;5.20;100.00;97206.19;4107267;28;20211;-45
2023/12/05 04:20:52;;;;;;;0.80;0.80;;;;;;;5.16;100.00;97216.69;4107011;28;20233;-45
2023/12/05 04:22:53;;;;;;;1.20;1.20;;;;;;;5.20;100.00;97206.19;4094156;28;20794;-44
2023/12/05 04:24:55;;;;;;;0.80;0.80;;;;;;;5.16;100.00;97226.75;4097163;28;20217;-45
2023/12/05 04:26:57;;;;;;;0.90;0.90;;;;;;;5.17;100.00;97229.19;4095531;28;20262;-45
2023/12/05 04:28:59;;;;;;;1.20;1.20;;;;;;;5.21;100.00;97213.25;4091629;28;20208;-44
2023/12/05 04:31:01;;;;;;;3.30;1.38;;;;;;;5.16;100.00;97224.03;4103102;28;20218;-44
2023/12/05 04:33:03;;;;;;;0.90;0.90;;;;;;;5.11;100.00;97223.94;4108888;28;20214;-45
2023/12/05 04:35:05;;;;;;;1.25;1.15;;;;;;;5.17;100.00;97220.25;4107623;28;20213;-45
2023/12/05 04:37:08;;;;;;;0.88;0.88;;;;;;;5.19;100.00;97228.94;4086508;28;20271;-44
2023/12/05 04:39:09;;;;;;;0.80;0.80;;;;;;;5.24;100.00;97218.19;4103382;28;20214;-45
2023/12/05 04:41:11;;;;;;;0.95;0.95;;;;;;;5.28;100.00;97219.31;4100717;28;20229;-45
2023/12/05 04:43:14;;;;;;;1.20;1.20;;;;;;;5.26;100.00;97216.03;4110743;28;20210;-44
2023/12/05 04:45:16;;;;;;;0.90;0.90;;;;;;;5.28;100.00;97224.72;4090298;28;20211;-44
2023/12/05 04:47:18;;;;;;;0.77;0.77;;;;;;;5.30;100.00;97222.63;4091563;28;20204;-45
2023/12/05 04:49:20;;;;;;;0.80;0.80;;;;;;;5.31;100.00;97229.69;4094385;28;20267;-45
2023/12/05 04:51:23;;;;;;;1.25;1.25;;;;;;;5.27;100.00;97228.50;4077050;29;20212;-45
2023/12/05 04:53:25;;;;;;;0.90;0.90;;;;;;;5.23;100.00;97221.97;4091461;28;20252;-45
2023/12/05 04:55:27;;;;;;;0.70;0.70;;;;;;;5.31;100.00;97224.25;4104188;28;20231;-45
2023/12/05 04:57:28;;;;;;;0.93;0.93;;;;;;;5.30;100.00;97218.00;4109685;28;20261;-44
2023/12/05 04:59:30;;;;;;;1.13;1.05;;;;;;;5.32;100.00;97223.19;4091526;28;20681;-44
2023/12/05 05:01:32;;;;;;;15.07;1.15;;;;;;;5.25;100.00;97222.53;4090212;28;20594;-45
2023/12/05 05:03:34;;;;;;;1.27;1.17;;;;;;;5.23;100.00;97222.78;4087699;28;20303;-44
2023/12/05 05:05:36;;;;;;;0.88;0.88;;;;;;;5.28;100.00;97219.31;4089475;28;20530;-45
2023/12/05 05:07:38;;;;;;;1.00;1.00;;;;;;;5.32;100.00;97215.03;4095313;28;20562;-45
2023/12/05 05:09:40;;;;;;;0.90;0.90;;;;;;;5.34;100.00;97240.00;4094174;28;20684;-45
2023/12/05 05:11:41;;;;;;;1.92;1.40;;;;;;;5.36;100.00;97224.34;4074965;29;20208;-45
2023/12/05 05:13:43;;;;;;;0.80;0.80;;;;;;;5.35;100.00;97217.28;4095457;28;20253;-44
2023/12/05 05:15:56;;;;;;;0.90;0.90;;;;;;;5.32;100.00;97225.88;4092499;28;20243;-44
2023/12/05 05:17:59;;;;;;;0.98;0.98;;;;;;;5.27;100.00;97229.34;4077208;29;20681;-44
2023/12/05 05:20:03;;;;;;;1.10;1.10;;;;;;;5.40;100.00;97233.59;4082746;28;20286;-44
2023/12/05 05:22:04;;;;;;;0.90;0.90;;;;;;;5.41;100.00;97229.81;4089480;28;20211;-44
2023/12/05 05:24:06;;;;;;;1.23;1.13;;;;;;;5.34;100.00;97232.72;4088594;28;20219;-44
2023/12/05 05:26:08;;;;;;;4.40;1.20;;;;;;;5.28;100.00;97230.16;4088867;28;20812;-44
2023/12/05 05:28:10;;;;;;;0.93;0.93;;;;;;;5.32;100.00;97234.03;4108488;28;20218;-45
2023/12/05 05:30:12;;;;;;;3.42;1.42;;;;;;;5.29;100.00;97237.25;4092189;28;20235;-44
2023/12/05 05:32:14;;;;;;;0.93;0.93;;;;;;;5.33;100.00;97232.94;4092666;28;20211;-45
2023/12/05 05:34:15;;;;;;;1.20;1.20;;;;;;;5.31;100.00;97254.09;4107875;28;20210;-44
2023/12/05 05:36:18;;;;;;;0.70;0.70;;;;;;;5.32;100.00;97239.44;4096509;28;20231;-45
2023/12/05 05:38:20;;;;;;;1.05;1.05;;;;;;;5.26;100.00;97238.56;4090624;28;20215;-45
2023/12/05 05:40:22;;;;;;;0.77;0.77;;;;;;;5.23;100.00;97249.09;4091508;28;20208;-45
2023/12/05 05:42:23;;;;;;;0.90;0.90;;;;;;;5.25;100.00;97246.94;4099663;28;20273;-45
2023/12/05 05:44:25;;;;;;;0.80;0.80;;;;;;;5.23;100.00;97243.66;4112508;28;20222;-44
2023/12/05 05:46:27;;;;;;;0.90;0.90;;;;;;;5.22;100.00;97248.25;4091405;28;20227;-44
2023/12/05 05:48:29;;;;;;;0.82;0.82;;;;;;;5.17;100.00;97240.03;4095784;28;20211;-45
2023/12/05 05:50:31;;;;;;;0.65;0.60;;;;;;;5.16;100.00;97243.00;4091606;28;20239;-45
2023/12/05 05:52:33;;;;;;;0.70;0.70;;;;;;;5.26;100.00;97248.56;4091781;28;20214;-44
2023/12/05 05:54:35;;;;;;;0.68;0.68;;;;;;;5.25;100.00;97249.66;4104301;28;20257;-45
2023/12/05 05:56:40;;;;;;;1.40;1.20;;;;;;;5.28;100.00;97243.72;4087237;28;20270;-45
2023/12/05 05:58:43;;;;;;;1.10;1.00;;;;;;;5.33;100.00;97247.34;4092517;28;20302;-45
2023/12/05 06:00:45;;;;;;;0.80;0.80;;;;;;;5.33;100.00;97228.38;4075405;29;20231;-45
2023/12/05 06:02:47;;;;;;;0.88;0.85;;;;;;;5.36;100.00;97244.13;4107733;28;20210;-45
2023/12/05 06:04:49;;;;;;;1.00;1.00;;;;;;;5.35;100.00;97247.91;4095645;28;20214;-45
2023/12/05 06:06:51;;;;;;;1.30;1.23;;;;;;;5.36;100.00;97232.47;4106789;28;20231;-45
2023/12/05 06:08:52;;;;;;;0.85;0.85;;;;;;;5.42;100.00;97228.75;4077297;29;20216;-44
2023/12/05 06:10:55;;;;;;;0.70;0.70;;;;;;;5.42;100.00;97242.31;4089911;28;20668;-45
2023/12/05 06:12:56;;;;;;;0.80;0.80;;;;;;;5.40;100.00;97234.44;4091081;28;20301;-45
2023/12/05 06:14:59;;;;;;;1.25;1.15;;;;;;;5.44;100.00;97240.19;4107939;28;20206;-45
2023/12/05 06:17:00;;;;;;;1.55;0.90;;;;;;;5.44;100.00;97245.59;4078002;29;20706;-45
2023/12/05 06:19:03;;;;;;;1.02;1.02;;;;;;;5.43;100.00;97239.34;4098179;28;20341;-45
2023/12/05 06:21:06;;;;;;;1.15;1.08;;;;;;;5.49;100.00;97237.53;4109733;28;20289;-45
2023/12/05 06:23:07;;;;;;;1.00;1.00;;;;;;;5.47;100.00;97235.06;4111979;28;20268;-45
2023/12/05 06:25:09;;;;;;;0.80;0.80;;;;;;;5.51;100.00;97246.25;4100018;28;20243;-44
2023/12/05 06:27:11;;;;;;;1.70;1.45;;;;;;;5.49;100.00;97242.97;4099111;28;20215;-45
2023/12/05 06:29:12;;;;;;;1.73;1.63;;;;;;;5.52;100.00;97248.72;4112082;28;20281;-46
2023/12/05 06:31:15;;;;;;;1.50;1.40;;;;;;;5.55;100.00;97247.41;4096379;28;20733;-45
2023/12/05 06:33:18;;;;;;;0.95;0.95;;;;;;;5.53;100.00;97244.09;4078171;29;20342;-44
2023/12/05 06:35:21;;;;;;;0.80;0.80;;;;;;;5.47;100.00;97253.22;4094577;28;20718;-45
2023/12/05 06:37:22;;;;;;;2.05;1.95;;;;;;;5.47;100.00;97250.50;4110319;28;20293;-44
2023/12/05 06:39:25;;;;;;;0.90;0.90;;;;;;;5.46;100.00;97260.56;4113249;28;20230;-44
2023/12/05 06:41:27;;;;;;;0.95;0.95;;;;;;;5.37;100.00;97261.22;4112547;28;20218;-44
2023/12/05 06:43:29;;;;;;;1.08;1.08;;;;;;;5.35;100.00;97257.94;4094921;28;20211;-45
2023/12/05 06:45:31;;;;;;;1.00;1.00;;;;;;;5.38;100.00;97268.28;4080067;29;20670;-45
2023/12/05 06:47:33;;;;;;;1.40;1.25;;;;;;;5.37;100.00;97266.66;4116397;28;20218;-45
2023/12/05 06:49:35;;;;;;;1.38;1.38;;;;;;;5.35;100.00;97271.50;4094909;28;20212;-44
2023/12/05 06:51:37;;;;;;;0.80;0.80;;;;;;;5.38;100.00;97273.72;4094771;28;20222;-45
2023/12/05 06:53:39;;;;;;;1.38;1.38;;;;;;;5.37;100.00;97272.06;4097163;28;20219;-44
2023/12/05 06:55:47;;;;;;;0.85;0.85;;;;;;;5.33;100.00;97271.75;4098760;28;20230;-44
2023/12/05 06:57:48;;;;;;;1.30;1.20;;;;;;;5.34;100.00;97284.22;4078585;29;20234;-45
2023/12/05 06:59:50;;;;;;;1.15;1.15;;;;;;;5.32;100.00;97274.69;4088566;28;20248;-44
2023/12/05 07:01:52;;;;;;;1.00;1.00;;;;;;;5.35;100.00;97274.22;4095125;28;20207;-45
2023/12/05 07:03:54;;;;;;;2.63;1.08;;;;;;;5.30;100.00;97284.97;4093438;28;20251;-45
2023/12/05 07:05:58;;;;;;;1.52;1.17;;;;;;;5.31;100.00;97279.31;4097451;28;20231;-44
2023/12/05 07:08:03;;;;;;;1.50;1.48;;;;;;;5.30;100.00;97291.22;4097634;28;20206;-45
2023/12/05 07:10:05;;;;;;;1.15;1.15;;;;;;;5.28;100.00;97289.81;4096042;28;20219;-45
2023/12/05 07:12:07;;;;;;;9.05;1.88;;;;;;;5.33;100.00;97292.59;4097816;28;20669;-44
2023/12/05 07:14:09;;;;;;;2.67;2.10;;;;;;;5.35;100.00;97301.34;4113314;28;20206;-44
2023/12/05 07:16:11;;;;;;;3.03;2.83;;;;;;;5.35;100.00;97301.34;4095011;28;20239;-44
2023/12/05 07:18:13;;;;;;;1.55;1.45;;;;;;;5.34;100.00;97299.66;4084767;29;20222;-44
2023/12/05 07:20:15;;;;;;;1.60;1.50;;;;;;;5.33;100.00;97309.72;4095037;28;20207;-45
2023/12/05 07:22:16;;;;;;;1.63;1.60;;;;;;;5.37;100.00;97305.41;4094144;28;20241;-45
2023/12/05 07:24:18;;;;;;;1.88;1.77;;;;;;;5.33;100.00;97317.00;4110289;28;20523;-45
2023/12/05 07:26:20;;;;;;;15.52;0.93;;;;;;;5.33;100.00;97317.84;4111582;28;20733;-45
2023/12/05 07:28:22;;;;;;;1.75;1.65;;;;;;;5.35;100.00;97314.91;4091046;28;20215;-45
2023/12/05 07:30:33;;;;;;;1.00;1.00;;;;;;;5.35;100.00;97323.03;4100095;28;20764;-44
2023/12/05 07:32:43;;;;;;;1.08;1.08;;;;;;;5.37;100.00;97315.47;4078684;29;20247;-45
2023/12/05 07:34:45;;;;;;;1.73;1.63;;;;;;;5.35;100.00;97331.97;4095390;28;20206;-46
2023/12/05 07:37:01;;;;;;;1.10;1.08;;;;;;;5.37;100.00;97337.16;4096941;28;20274;-43
2023/12/05 07:39:14;;;;;;;1.20;1.10;;;;;;;5.37;100.00;97331.75;4100692;28;20227;-43
2023/12/05 07:41:22;;;;;;;1.15;1.15;;;;;;;5.31;100.00;97327.28;4100139;28;20235;-44
2023/12/05 07:43:24;;;;;;;1.50;1.50;;;;;;;5.30;100.00;97336.50;4107020;28;20219;-44
2023/12/05 07:45:26;;;;;;;1.02;1.02;;;;;;;5.32;100.00;97331.66;4102773;28;21193;-44
2023/12/05 07:47:28;;;;;;;1.05;1.05;;;;;;;5.34;100.00;97337.63;4116841;28;20250;-44
2023/12/05 07:49:30;;;;;;;4.57;1.30;;;;;;;5.35;100.00;97339.31;4117543;28;20202;-44
2023/12/05 07:51:40;;;;;;;4.22;2.17;;;;;;;5.31;100.00;97349.00;4102694;28;20304;-44
2023/12/05 07:53:42;;;;;;;0.98;0.98;;;;;;;5.31;100.00;97349.00;4102228;28;20796;-44
2023/12/05 07:55:44;;;;;;;1.33;1.33;;;;;;;5.32;100.00;97342.50;4109158;28;20223;-44
2023/12/05 07:57:47;;;;;;;1.05;1.05;;;;;;;5.35;100.00;97347.44;4096307;28;20882;-44
2023/12/05 07:59:49;;;;;;;1.38;1.33;;;;;;;5.29;100.00;97341.09;4097248;28;20211;-43
2023/12/05 08:01:51;;;;;;;1.73;1.63;;;;;;;5.29;100.00;97351.13;4102114;28;20357;-44
2023/12/05 08:04:01;;;;;;;0.77;0.77;;;;;;;5.32;100.00;97350.63;4099302;28;20207;-44
2023/12/05 08:06:03;;;;;;;1.20;1.20;;;;;;;5.35;100.00;97350.97;4108960;28;20233;-46
2023/12/05 08:08:06;;;;;;;1.67;1.58;;;;;;;5.38;100.00;97346.94;4089934;28;20290;-45
2023/12/05 08:10:19;;;;;;;1.17;1.13;;;;;;;5.39;100.00;97345.88;4083177;29;20264;-44
2023/12/05 08:12:39;;;;;;;1.40;1.30;;;;;;;5.43;100.00;97352.47;4102457;28;20229;-44
2023/12/05 08:14:59;;;;;;;1.40;1.40;;;;;;;5.39;100.00;97352.13;4102903;28;20211;-43
2023/12/05 08:17:07;;;;;;;1.30;1.10;;;;;;;5.43;100.00;97357.88;4095105;28;20685;-46
2023/12/05 08:19:08;;;;;;;0.80;0.80;;;;;;;5.43;100.00;97363.31;4092641;28;20219;-45
2023/12/05 08:21:10;;;;;;;0.98;0.93;;;;;;;5.45;100.00;97367.41;4092289;28;20262;-45
2023/12/05 08:23:12;;;;;;;0.75;0.75;;;;;;;5.46;100.00;97362.81;4105435;28;20211;-44
2023/12/05 08:25:14;;;;;;;0.90;0.90;;;;;;;5.53;100.00;97361.59;4091219;28;20222;-45
2023/12/05 08:27:15;;;;;;;1.75;1.63;;;;;;;5.56;100.00;97362.97;4111720;28;20207;-45
2023/12/05 08:29:17;;;;;;;1.00;1.00;;;;;;;5.62;100.00;97362.00;4090863;28;20261;-45
2023/12/05 08:31:19;;;;;;;1.05;1.05;;;;;;;5.61;100.00;97365.75;4080098;29;20227;-44
2023/12/05 08:33:21;;;;;;;1.00;1.00;;;;;;;5.62;100.00;97364.72;4097186;28;20218;-44
2023/12/05 08:35:23;;;;;;;0.82;0.82;;;;;;;5.60;100.00;97369.53;4096826;28;20231;-44
2023/12/05 08:37:25;;;;;;;0.70;0.70;;;;;;;5.60;100.00;97369.53;4092672;28;20246;-44
2023/12/05 08:39:27;;;;;;;1.33;1.23;;;;;;;5.61;100.00;97365.75;4099236;28;20208;-44
2023/12/05 08:41:29;;;;;;;1.20;1.10;;;;;;;5.62;100.00;97372.84;4093526;28;20247;-45
2023/12/05 08:43:30;;;;;;;1.13;1.13;;;;;;;5.61;100.00;97379.31;4095364;28;20709;-44
2023/12/05 08:45:32;;;;;;;1.17;1.17;;;;;;;5.61;100.00;97373.91;4099848;28;20238;-44
2023/12/05 08:47:34;;;;;;;1.20;0.98;;;;;;;5.59;100.00;97376.88;4109601;28;20293;-44
2023/12/05 08:49:36;;;;;;;3.60;1.23;;;;;;;5.63;100.00;97369.88;4107626;28;20306;-44
2023/12/05 08:51:38;;;;;;;1.08;1.08;;;;;;;5.62;100.00;97372.84;4081344;29;20235;-44
2023/12/05 08:53:39;;;;;;;11.20;1.10;;;;;;;5.65;100.00;97366.91;4091386;28;20669;-44
2023/12/05 08:55:42;;;;;;;0.90;0.90;;;;;;;5.67;100.00;97370.19;4107623;28;20231;-44
2023/12/05 08:57:44;;;;;;;0.80;0.80;;;;;;;5.65;100.00;97366.91;4074589;29;20720;-45
2023/12/05 08:59:45;;;;;;;1.05;1.00;;;;;;;5.72;100.00;97370.28;4090464;28;20212;-44
2023/12/05 09:01:48;;;;;;;1.38;1.30;;;;;;;5.72;100.00;97373.00;4093744;28;20615;-45
2023/12/05 09:03:50;;;;;;;1.13;1.13;;;;;;;5.80;100.00;97372.59;4108049;28;20518;-44
2023/12/05 09:05:52;;;;;;;0.82;0.82;;;;;;;5.80;100.00;97375.31;4092321;28;20223;-44
2023/12/05 09:07:54;;;;;;;0.70;0.70;;;;;;;5.77;100.00;97382.03;4095357;28;20686;-44
2023/12/05 09:09:56;;;;;;;0.98;0.98;;;;;;;5.79;100.00;97381.78;4105260;28;20727;-45
2023/12/05 09:11:59;;;;;;;2.30;1.30;;;;;;;5.75;100.00;97383.38;4093150;28;20227;-43
2023/12/05 09:14:01;;;;;;;2.80;2.10;;;;;;;5.74;100.00;97381.69;4094326;28;20238;-44
2023/12/05 09:16:03;;;;;;;1.40;1.30;;;;;;;5.75;100.00;97383.38;4109291;28;20227;-44
2023/12/05 09:18:05;;;;;;;1.02;1.00;;;;;;;5.70;100.00;97383.28;4090973;28;20219;-44
2023/12/05 09:20:07;;;;;;;0.90;0.90;;;;;;;5.68;100.00;97388.13;4088920;28;20215;-44
2023/12/05 09:22:09;;;;;;;1.20;1.20;;;;;;;5.69;100.00;97376.22;4092915;28;20207;-44
2023/12/05 09:24:10;;;;;;;0.80;0.80;;;;;;;5.71;100.00;97387.63;4092232;28;20298;-44
2023/12/05 09:26:13;;;;;;;5.97;1.77;;;;;;;5.69;100.00;97396.03;4107621;28;20718;-44
2023/12/05 09:28:15;;;;;;;1.52;1.40;;;;;;;5.72;100.00;97389.28;4092149;28;20207;-44
2023/12/05 09:30:17;;;;;;;0.90;0.90;;;;;;;5.69;100.00;97389.78;4096033;28;20292;-44
2023/12/05 09:32:19;;;;;;;0.98;0.98;;;;;;;5.82;100.00;97384.06;4094990;28;20286;-44
2023/12/05 09:34:20;;;;;;;0.77;0.77;;;;;;;5.78;100.00;97404.56;4093305;28;20587;-44
2023/12/05 09:36:22;;;;;;;0.98;0.98;;;;;;;5.77;100.00;97397.50;4110328;28;20736;-44
2023/12/05 09:38:24;;;;;;;0.90;0.90;;;;;;;5.78;100.00;97396.44;4088287;28;20223;-44